createdAt,value
2023-05-01T00:01:54.125Z,101904.53
2023-05-01T00:04:22.398Z,101893.28
2023-05-01T00:06:49.454Z,101897.94
2023-05-01T00:09:16.439Z,101888.50
2023-05-01T00:11:43.321Z,101888.06
2023-05-01T00:14:10.190Z,101882.06
2023-05-01T00:16:37.227Z,101874.50
2023-05-01T00:19:05.504Z,101874.19
2023-05-01T00:21:32.402Z,101877.16
2023-05-01T00:23:59.268Z,101873.88
2023-05-01T00:26:30.348Z,101869.75
2023-05-01T00:28:58.193Z,101870.91
2023-05-01T00:31:26.004Z,101870.28
2023-05-01T00:33:53.178Z,101869.44
2023-05-01T00:36:21.510Z,101864.97
2023-05-01T00:38:48.396Z,101868.47
2023-05-01T00:41:15.388Z,101856.19
2023-05-01T00:43:42.671Z,101858.00
2023-05-01T00:46:10.119Z,101861.69
2023-05-01T00:48:37.408Z,101856.53
2023-05-01T00:51:08.250Z,101853.41
2023-05-01T00:53:36.525Z,101852.78
2023-05-01T00:56:04.257Z,101852.09
2023-05-01T00:58:31.386Z,101840.69
2023-05-01T01:00:58.534Z,101847.47
2023-05-01T01:03:25.639Z,101843.81
2023-05-01T01:06:01.160Z,101840.50
2023-05-01T01:08:38.080Z,101841.69
2023-05-01T01:11:21.562Z,101835.91
2023-05-01T01:14:03.750Z,101832.59
2023-05-01T01:16:41.579Z,101831.28
2023-05-01T01:19:54.049Z,101831.63
2023-05-01T01:22:27.622Z,101828.53
2023-05-01T01:25:43.729Z,101825.75
2023-05-01T01:28:30.911Z,101826.91
2023-05-01T01:31:17.604Z,101823.44
2023-05-01T01:34:02.273Z,101812.19
2023-05-01T01:36:40.816Z,101813.81
2023-05-01T01:39:27.008Z,101812.19
2023-05-01T01:41:58.049Z,101805.06
2023-05-01T01:44:34.684Z,101806.25
2023-05-01T01:47:08.177Z,101798.28
2023-05-01T01:49:42.482Z,101790.50
2023-05-01T01:52:14.168Z,101794.16
2023-05-01T01:54:48.757Z,101790.03
2023-05-01T01:57:19.346Z,101788.38
2023-05-01T01:59:48.388Z,101783.41
2023-05-01T02:02:19.875Z,101781.78
2023-05-01T02:04:50.418Z,101771.50
2023-05-01T02:07:20.188Z,101771.84
2023-05-01T02:09:50.772Z,101768.53
2023-05-01T02:12:19.880Z,101769.72
2023-05-01T02:14:51.365Z,101772.53
2023-05-01T02:17:21.133Z,101759.47
2023-05-01T02:19:53.161Z,101763.94
2023-05-01T02:22:22.667Z,101760.28
2023-05-01T02:24:50.123Z,101760.28
2023-05-01T02:27:23.574Z,101759.63
2023-05-01T02:29:52.168Z,101750.84
2023-05-01T02:32:19.896Z,101753.50
2023-05-01T02:34:46.821Z,101759.63
2023-05-01T02:37:16.004Z,101748.06
2023-05-01T02:39:43.278Z,101748.06
2023-05-01T02:42:12.610Z,101741.75
2023-05-01T02:44:48.001Z,101734.00
2023-05-01T02:47:20.313Z,101741.94
2023-05-01T02:49:48.959Z,101737.47
2023-05-01T02:52:20.341Z,101747.03
2023-05-01T02:54:47.925Z,101731.00
2023-05-01T02:57:17.017Z,101726.53
2023-05-01T02:59:44.167Z,101714.28
2023-05-01T03:02:11.473Z,101715.13
2023-05-01T03:04:38.540Z,101712.47
2023-05-01T03:07:05.650Z,101701.69
2023-05-01T03:09:34.041Z,101706.00
2023-05-01T03:12:01.059Z,101703.34
2023-05-01T03:14:28.549Z,101698.84
2023-05-01T03:16:55.841Z,101693.56
2023-05-01T03:19:22.825Z,101690.28
2023-05-01T03:21:49.765Z,101686.97
2023-05-01T03:24:16.649Z,101691.44
2023-05-01T03:26:45.020Z,101688.78
2023-05-01T03:29:13.229Z,101677.56
2023-05-01T03:31:40.129Z,101680.84
2023-05-01T03:34:07.245Z,101680.69
2023-05-01T03:36:34.352Z,101677.84
2023-05-01T03:39:01.262Z,101674.06
2023-05-01T03:41:28.179Z,101671.81
2023-05-01T03:43:56.446Z,101676.44
2023-05-01T03:46:24.105Z,101673.13
2023-05-01T03:48:50.964Z,101662.72
2023-05-01T03:51:18.026Z,101661.88
2023-05-01T03:53:45.213Z,101662.06
2023-05-01T03:56:12.111Z,101655.50
2023-05-01T03:58:38.998Z,101654.81
2023-05-01T04:01:07.215Z,101649.91
2023-05-01T04:03:34.244Z,101655.53
2023-05-01T04:06:01.537Z,101655.53
2023-05-01T04:08:28.474Z,101652.38
2023-05-01T04:10:55.358Z,101655.88
2023-05-01T04:13:22.234Z,101656.69
2023-05-01T04:15:49.213Z,101652.88
2023-05-01T04:18:17.493Z,101652.38
2023-05-01T04:20:44.630Z,101658.19
2023-05-01T04:23:12.612Z,101651.63
2023-05-01T04:25:39.545Z,101651.16
2023-05-01T04:28:06.478Z,101654.59
2023-05-01T04:30:33.776Z,101651.47
2023-05-01T04:33:01.770Z,101661.56
2023-05-01T04:35:30.082Z,101650.41
2023-05-01T04:37:57.032Z,101646.28
2023-05-01T04:40:23.977Z,101640.78
2023-05-01T04:42:50.840Z,101636.69
2023-05-01T04:45:17.926Z,101632.22
2023-05-01T04:47:44.900Z,101634.22
2023-05-01T04:50:12.137Z,101629.28
2023-05-01T04:52:40.600Z,101632.94
2023-05-01T04:55:09.517Z,101630.75
2023-05-01T04:57:36.581Z,101629.44
2023-05-01T05:00:04.981Z,101627.91
2023-05-01T05:02:32.144Z,101623.56
2023-05-01T05:04:59.139Z,101618.91
2023-05-01T05:07:26.038Z,101623.16
2023-05-01T05:09:54.615Z,101625.75
2023-05-01T05:12:21.843Z,101621.09
2023-05-01T05:14:48.733Z,101617.06
2023-05-01T05:17:15.701Z,101625.31
2023-05-01T05:19:42.573Z,101619.31
2023-05-01T05:22:09.513Z,101621.91
2023-05-01T05:24:36.375Z,101623.03
2023-05-01T05:27:07.055Z,101617.69
2023-05-01T05:29:34.883Z,101618.63
2023-05-01T05:32:02.028Z,101615.00
2023-05-01T05:34:29.051Z,101617.47
2023-05-01T05:36:55.937Z,101612.16
2023-05-01T05:39:23.664Z,101610.16
2023-05-01T05:41:53.600Z,101606.50
2023-05-01T05:44:21.822Z,101601.50
2023-05-01T05:46:48.784Z,101599.00
2023-05-01T05:49:15.681Z,101598.84
2023-05-01T05:51:42.664Z,101598.13
2023-05-01T05:54:09.608Z,101599.41
2023-05-01T05:56:36.480Z,101604.00
2023-05-01T05:59:04.527Z,101595.31
2023-05-01T06:01:32.900Z,101599.06
2023-05-01T06:03:59.760Z,101587.00
2023-05-01T06:06:27.573Z,101588.84
2023-05-01T06:08:54.474Z,101588.31
2023-05-01T06:11:21.990Z,101584.81
2023-05-01T06:13:48.929Z,101588.59
2023-05-01T06:16:15.873Z,101586.75
2023-05-01T06:18:45.830Z,101580.06
2023-05-01T06:21:13.282Z,101584.28
2023-05-01T06:23:40.374Z,101580.91
2023-05-01T06:26:07.996Z,101581.97
2023-05-01T06:28:34.932Z,101581.31
2023-05-01T06:31:01.845Z,101582.91
2023-05-01T06:33:28.749Z,101582.59
2023-05-01T06:35:59.689Z,101569.47
2023-05-01T06:38:27.070Z,101575.03
2023-05-01T06:40:54.140Z,101569.41
2023-05-01T06:43:21.213Z,101577.06
2023-05-01T06:45:48.065Z,101566.47
2023-05-01T06:48:15.110Z,101572.22
2023-05-01T06:50:42.032Z,101556.72
2023-05-01T06:53:10.322Z,101562.72
2023-05-01T06:55:37.203Z,101563.44
2023-05-01T06:58:15.919Z,101558.97
2023-05-01T07:00:50.724Z,101551.03
2023-05-01T07:03:17.822Z,101552.13
2023-05-01T07:05:44.830Z,101552.84
2023-05-01T07:08:14.197Z,101542.06
2023-05-01T07:10:42.316Z,101543.31
2023-05-01T07:13:09.758Z,101542.50
2023-05-01T07:15:37.120Z,101541.31
2023-05-01T07:18:05.987Z,101544.69
2023-05-01T07:20:34.416Z,101539.81
2023-05-01T07:23:01.411Z,101539.44
2023-05-01T07:25:29.870Z,101532.88
2023-05-01T07:27:57.016Z,101540.66
2023-05-01T07:30:24.176Z,101533.47
2023-05-01T07:32:51.096Z,101528.38
2023-05-01T07:35:18.226Z,101526.28
2023-05-01T07:37:45.219Z,101526.94
2023-05-01T07:40:12.420Z,101524.72
2023-05-01T07:42:40.727Z,101523.34
2023-05-01T07:45:09.123Z,101515.34
2023-05-01T07:47:36.512Z,101519.31
2023-05-01T07:50:04.360Z,101515.69
2023-05-01T07:52:31.498Z,101516.19
2023-05-01T07:54:58.461Z,101506.22
2023-05-01T07:57:25.430Z,101505.44
2023-05-01T07:59:56.725Z,101506.84
2023-05-01T08:02:24.087Z,101503.84
2023-05-01T08:04:51.570Z,101503.91
2023-05-01T08:07:18.705Z,101496.78
2023-05-01T08:09:46.420Z,101496.09
2023-05-01T08:12:13.865Z,101498.34
2023-05-01T08:14:40.739Z,101489.16
2023-05-01T08:17:08.974Z,101492.47
2023-05-01T08:19:35.988Z,101493.63
2023-05-01T08:22:02.896Z,101483.91
2023-05-01T08:24:29.905Z,101485.81
2023-05-01T08:26:57.112Z,101492.31
2023-05-01T08:29:24.077Z,101482.31
2023-05-01T08:31:53.438Z,101487.16
2023-05-01T08:34:22.713Z,101483.06
2023-05-01T08:36:49.737Z,101481.72
2023-05-01T08:39:16.793Z,101477.88
2023-05-01T08:41:47.217Z,101480.09
2023-05-01T08:44:16.601Z,101479.09
2023-05-01T08:46:50.817Z,101479.16
2023-05-01T08:49:22.018Z,101482.56
2023-05-01T08:51:54.064Z,101476.88
2023-05-01T08:54:21.984Z,101472.56
2023-05-01T08:56:51.551Z,101472.31
2023-05-01T08:59:20.496Z,101468.63
2023-05-01T09:01:49.119Z,101457.78
2023-05-01T09:04:17.613Z,101450.09
2023-05-01T09:06:46.178Z,101454.28
2023-05-01T09:09:13.139Z,101453.13
2023-05-01T09:11:40.584Z,101448.88
2023-05-01T09:14:08.517Z,101450.38
2023-05-01T09:16:36.116Z,101441.72
2023-05-01T09:19:03.389Z,101447.34
2023-05-01T09:21:31.934Z,101453.47
2023-05-01T09:24:00.225Z,101449.69
2023-05-01T09:26:27.541Z,101453.75
2023-05-01T09:28:58.366Z,101434.66
2023-05-01T09:31:32.671Z,101452.97
2023-05-01T09:34:02.659Z,101447.78
2023-05-01T09:36:32.353Z,101450.88
2023-05-01T09:39:02.540Z,101443.13
2023-05-01T09:41:33.173Z,101443.34
2023-05-01T09:44:01.921Z,101437.66
2023-05-01T09:46:43.709Z,101449.63
2023-05-01T09:49:10.715Z,101448.38
2023-05-01T09:51:37.800Z,101438.19
2023-05-01T09:54:18.231Z,101438.94
2023-05-01T09:56:48.505Z,101438.75
2023-05-01T09:59:18.194Z,101435.69
2023-05-01T10:01:49.311Z,101431.50
2023-05-01T10:04:16.585Z,101428.94
2023-05-01T10:06:43.622Z,101420.22
2023-05-01T10:09:17.337Z,101426.09
2023-05-01T10:11:48.933Z,101427.78
2023-05-01T10:14:16.250Z,101421.00
2023-05-01T10:16:43.378Z,101419.38
2023-05-01T10:19:11.031Z,101410.78
2023-05-01T10:21:38.474Z,101409.91
2023-05-01T10:24:07.260Z,101412.44
2023-05-01T10:26:37.702Z,101410.28
2023-05-01T10:29:05.164Z,101412.66
2023-05-01T10:31:33.186Z,101409.09
2023-05-01T10:34:02.049Z,101406.91
2023-05-01T10:36:37.369Z,101412.38
2023-05-01T10:39:04.945Z,101407.13
2023-05-01T10:42:10.998Z,101409.84
2023-05-01T10:44:38.186Z,101409.44
2023-05-01T10:47:45.444Z,101396.84
2023-05-01T10:50:15.472Z,101408.47
2023-05-01T10:53:17.648Z,101400.09
2023-05-01T10:55:46.863Z,101398.59
2023-05-01T10:59:05.926Z,101396.25
2023-05-01T11:01:34.861Z,101388.91
2023-05-01T11:04:04.713Z,101381.25
2023-05-01T11:06:32.710Z,101377.06
2023-05-01T11:09:01.113Z,101366.13
2023-05-01T11:11:49.835Z,101362.91
2023-05-01T11:14:18.412Z,101360.16
2023-05-01T11:16:46.812Z,101352.91
2023-05-01T11:19:48.088Z,101361.19
2023-05-01T11:22:15.516Z,101364.91
2023-05-01T11:24:43.441Z,101354.69
2023-05-01T11:27:14.455Z,101359.13
2023-05-01T11:29:46.094Z,101344.63
2023-05-01T11:32:24.181Z,101350.63
2023-05-01T11:34:52.501Z,101352.28
2023-05-01T11:37:19.602Z,101350.34
2023-05-01T11:39:52.468Z,101346.66
2023-05-01T11:42:22.638Z,101341.66
2023-05-01T11:45:11.271Z,101346.47
2023-05-01T11:47:38.473Z,101348.94
2023-05-01T11:50:07.576Z,101341.03
2023-05-01T11:52:44.176Z,101335.94
2023-05-01T11:55:11.665Z,101334.50
2023-05-01T11:57:49.852Z,101333.03
2023-05-01T12:00:29.768Z,101332.78
2023-05-01T12:03:03.099Z,101327.78
2023-05-01T12:05:31.773Z,101318.00
2023-05-01T12:08:14.392Z,101317.28
2023-05-01T12:10:43.729Z,101322.69
2023-05-01T12:13:13.501Z,101310.22
2023-05-01T12:15:44.904Z,101310.91
2023-05-01T12:18:14.166Z,101313.72
2023-05-01T12:20:44.175Z,101318.19
2023-05-01T12:23:13.738Z,101303.56
2023-05-01T12:25:42.800Z,101303.81
2023-05-01T12:28:13.017Z,101301.69
2023-05-01T12:30:42.510Z,101299.56
2023-05-01T12:33:15.014Z,101295.56
2023-05-01T12:35:48.073Z,101291.22
2023-05-01T12:38:17.515Z,101295.06
2023-05-01T12:40:55.684Z,101297.00
2023-05-01T12:43:30.686Z,101279.97
2023-05-01T12:45:59.686Z,101280.13
2023-05-01T12:48:29.783Z,101284.97
2023-05-01T12:50:57.599Z,101274.50
2023-05-01T12:53:27.619Z,101272.41
2023-05-01T12:55:58.177Z,101271.75
2023-05-01T12:58:36.337Z,101279.00
2023-05-01T13:01:05.209Z,101276.88
2023-05-01T13:03:34.029Z,101269.88
2023-05-01T13:06:03.602Z,101274.25
2023-05-01T13:08:32.817Z,101261.34
2023-05-01T13:11:02.773Z,101264.72
2023-05-01T13:13:31.761Z,101256.69
2023-05-01T13:16:12.076Z,101250.63
2023-05-01T13:18:47.446Z,101256.13
2023-05-01T13:21:16.611Z,101256.22
2023-05-01T13:23:54.035Z,101253.25
2023-05-01T13:26:27.290Z,101252.19
2023-05-01T13:28:55.418Z,101258.63
2023-05-01T13:31:24.051Z,101255.63
2023-05-01T13:33:53.391Z,101260.81
2023-05-01T13:36:26.451Z,101252.97
2023-05-01T13:38:56.827Z,101244.09
2023-05-01T13:41:26.491Z,101247.81
2023-05-01T13:43:56.279Z,101248.97
2023-05-01T13:46:28.916Z,101244.75
2023-05-01T13:48:57.598Z,101243.16
2023-05-01T13:51:27.077Z,101248.56
2023-05-01T13:53:56.130Z,101246.88
2023-05-01T13:56:23.208Z,101252.81
2023-05-01T13:58:50.695Z,101246.06
2023-05-01T14:01:20.481Z,101239.38
2023-05-01T14:03:49.829Z,101237.47
2023-05-01T14:06:18.955Z,101237.72
2023-05-01T14:08:47.978Z,101227.94
2023-05-01T14:11:15.721Z,101228.72
2023-05-01T14:13:44.965Z,101235.19
2023-05-01T14:16:21.921Z,101228.13
2023-05-01T14:18:52.844Z,101233.22
2023-05-01T14:21:20.817Z,101225.41
2023-05-01T14:23:48.023Z,101228.97
2023-05-01T14:26:18.748Z,101225.38
2023-05-01T14:28:47.853Z,101213.34
2023-05-01T14:31:24.184Z,101218.78
2023-05-01T14:33:57.782Z,101210.72
2023-05-01T14:36:25.542Z,101209.31
2023-05-01T14:38:56.422Z,101205.75
2023-05-01T14:41:23.759Z,101214.59
2023-05-01T14:43:53.721Z,101222.63
2023-05-01T14:46:29.921Z,101216.50
2023-05-01T14:48:59.510Z,101213.09
2023-05-01T14:51:27.710Z,101221.47
2023-05-01T14:53:54.820Z,101221.53
2023-05-01T14:56:22.766Z,101218.81
2023-05-01T14:58:50.006Z,101220.16
2023-05-01T15:01:17.984Z,101225.81
2023-05-01T15:03:45.464Z,101215.28
2023-05-01T15:06:14.327Z,101212.84
2023-05-01T15:08:41.470Z,101226.88
2023-05-01T15:11:08.544Z,101222.56
2023-05-01T15:13:36.486Z,101223.34
2023-05-01T15:16:04.220Z,101230.13
2023-05-01T15:18:31.358Z,101225.25
2023-05-01T15:20:58.263Z,101224.72
2023-05-01T15:23:27.628Z,101224.19
2023-05-01T15:25:54.660Z,101224.19
2023-05-01T15:28:21.641Z,101219.31
2023-05-01T15:30:48.575Z,101217.16
2023-05-01T15:33:18.822Z,101224.44
2023-05-01T15:35:47.175Z,101216.31
2023-05-01T15:38:14.198Z,101212.25
2023-05-01T15:40:43.622Z,101223.56
2023-05-01T15:43:10.483Z,101223.31
2023-05-01T15:45:42.876Z,101217.63
2023-05-01T15:48:11.779Z,101222.22
2023-05-01T15:50:38.818Z,101214.13
2023-05-01T15:53:05.985Z,101211.69
2023-05-01T15:55:34.098Z,101220.06
2023-05-01T15:58:02.793Z,101221.97
2023-05-01T16:00:29.940Z,101217.66
2023-05-01T16:02:56.992Z,101224.94
2023-05-01T16:05:26.514Z,101219.28
2023-05-01T16:07:56.072Z,101221.50
2023-05-01T16:10:23.424Z,101223.94
2023-05-01T16:12:50.956Z,101235.56
2023-05-01T16:15:19.341Z,101239.63
2023-05-01T16:17:46.763Z,101247.50
2023-05-01T16:20:14.799Z,101244.75
2023-05-01T16:22:43.357Z,101242.88
2023-05-01T16:25:11.660Z,101249.91
2023-05-01T16:27:41.389Z,101252.63
2023-05-01T16:30:10.458Z,101258.84
2023-05-01T16:32:41.042Z,101260.72
2023-05-01T16:35:11.276Z,101252.88
2023-05-01T16:37:39.454Z,101255.00
2023-05-01T16:40:09.114Z,101255.00
2023-05-01T16:42:38.300Z,101264.97
2023-05-01T16:45:08.827Z,101268.47
2023-05-01T16:47:36.178Z,101265.75
2023-05-01T16:50:09.873Z,101269.25
2023-05-01T16:52:36.993Z,101271.69
2023-05-01T16:55:04.518Z,101278.13
2023-05-01T16:57:31.472Z,101275.84
2023-05-01T16:59:58.544Z,101282.56
2023-05-01T17:02:25.765Z,101281.69
2023-05-01T17:04:52.725Z,101287.56
2023-05-01T17:07:27.826Z,101285.91
2023-05-01T17:09:55.062Z,101298.25
2023-05-01T17:12:23.381Z,101292.69
2023-05-01T17:14:50.758Z,101299.06
2023-05-01T17:17:17.819Z,101303.25
2023-05-01T17:19:44.990Z,101300.94
2023-05-01T17:22:12.075Z,101301.81
2023-05-01T17:24:41.137Z,101320.19
2023-05-01T17:27:08.128Z,101324.59
2023-05-01T17:29:35.456Z,101325.41
2023-05-01T17:32:04.365Z,101326.75
2023-05-01T17:34:31.297Z,101322.72
2023-05-01T17:36:58.256Z,101329.72
2023-05-01T17:39:27.431Z,101327.59
2023-05-01T17:41:55.697Z,101332.84
2023-05-01T17:44:22.611Z,101335.91
2023-05-01T17:46:49.540Z,101339.00
2023-05-01T17:49:16.479Z,101336.72
2023-05-01T17:51:45.075Z,101341.41
2023-05-01T17:54:12.065Z,101349.38
2023-05-01T17:56:39.008Z,101343.34
2023-05-01T17:59:07.516Z,101347.22
2023-05-01T18:01:35.271Z,101354.88
2023-05-01T18:04:05.843Z,101350.94
2023-05-01T18:06:33.123Z,101351.06
2023-05-01T18:09:00.143Z,101349.09
2023-05-01T18:11:27.951Z,101350.03
2023-05-01T18:13:55.003Z,101360.91
2023-05-01T18:16:24.549Z,101357.75
2023-05-01T18:18:53.003Z,101360.47
2023-05-01T18:21:19.914Z,101370.97
2023-05-01T18:23:48.517Z,101367.84
2023-05-01T18:26:16.530Z,101372.97
2023-05-01T18:28:43.641Z,101365.28
2023-05-01T18:31:10.527Z,101374.69
2023-05-01T18:33:39.091Z,101376.66
2023-05-01T18:36:06.397Z,101374.81
2023-05-01T18:38:33.359Z,101389.59
2023-05-01T18:41:00.405Z,101381.88
2023-05-01T18:43:27.690Z,101382.22
2023-05-01T18:45:54.643Z,101381.72
2023-05-01T18:48:21.542Z,101383.44
2023-05-01T18:51:06.812Z,101379.59
2023-05-01T18:53:34.519Z,101378.31
2023-05-01T18:56:01.537Z,101379.81
2023-05-01T18:58:28.432Z,101381.88
2023-05-01T19:00:55.679Z,101378.59
2023-05-01T19:03:22.629Z,101376.13
2023-05-01T19:05:50.972Z,101379.06
2023-05-01T19:08:17.905Z,101383.78
2023-05-01T19:10:44.831Z,101383.22
2023-05-01T19:13:12.224Z,101391.91
2023-05-01T19:15:39.100Z,101403.91
2023-05-01T19:18:06.176Z,101393.66
2023-05-01T19:20:33.126Z,101393.66
2023-05-01T19:23:01.404Z,101405.41
2023-05-01T19:25:29.328Z,101410.16
2023-05-01T19:27:57.265Z,101408.53
2023-05-01T19:30:24.621Z,101413.03
2023-05-01T19:32:51.988Z,101419.22
2023-05-01T19:35:19.015Z,101417.59
2023-05-01T19:37:46.123Z,101415.97
2023-05-01T19:40:15.924Z,101418.06
2023-05-01T19:42:42.945Z,101423.84
2023-05-01T19:45:10.411Z,101435.81
2023-05-01T19:47:37.482Z,101430.09
2023-05-01T19:50:05.604Z,101429.72
2023-05-01T19:52:32.635Z,101430.19
2023-05-01T19:55:03.976Z,101424.44
2023-05-01T19:57:33.699Z,101424.88
2023-05-01T20:00:01.237Z,101424.28
2023-05-01T20:02:28.498Z,101429.28
2023-05-01T20:04:55.861Z,101425.19
2023-05-01T20:07:22.827Z,101422.97
2023-05-01T20:09:50.154Z,101430.41
2023-05-01T20:12:17.094Z,101430.84
2023-05-01T20:14:45.370Z,101440.94
2023-05-01T20:17:12.314Z,101436.63
2023-05-01T20:19:39.920Z,101436.03
2023-05-01T20:22:07.103Z,101441.38
2023-05-01T20:24:34.008Z,101444.88
2023-05-01T20:27:00.915Z,101445.69
2023-05-01T20:29:28.099Z,101444.63
2023-05-01T20:31:58.166Z,101446.88
2023-05-01T20:34:25.177Z,101458.16
2023-05-01T20:36:52.102Z,101457.16
2023-05-01T20:39:19.114Z,101462.03
2023-05-01T20:41:45.963Z,101463.91
2023-05-01T20:44:12.905Z,101463.69
2023-05-01T20:46:39.858Z,101461.59
2023-05-01T20:49:09.960Z,101464.84
2023-05-01T20:51:38.269Z,101462.19
2023-05-01T20:54:05.174Z,101466.94
2023-05-01T20:56:32.317Z,101465.75
2023-05-01T20:59:00.246Z,101471.53
2023-05-01T21:01:29.756Z,101475.72
2023-05-01T21:03:58.491Z,101474.72
2023-05-01T21:06:29.441Z,101473.97
2023-05-01T21:08:56.351Z,101479.94
2023-05-01T21:11:23.767Z,101475.03
2023-05-01T21:13:51.158Z,101472.19
2023-05-01T21:16:19.704Z,101467.31
2023-05-01T21:18:46.840Z,101468.56
2023-05-01T21:21:15.735Z,101466.72
2023-05-01T21:23:48.897Z,101465.66
2023-05-01T21:26:16.235Z,101482.53
2023-05-01T21:28:43.587Z,101471.81
2023-05-01T21:31:14.401Z,101474.09
2023-05-01T21:33:45.499Z,101482.59
2023-05-01T21:36:16.793Z,101475.41
2023-05-01T21:38:46.110Z,101474.22
2023-05-01T21:41:15.243Z,101471.97
2023-05-01T21:43:42.440Z,101477.75
2023-05-01T21:46:15.874Z,101474.47
2023-05-01T21:48:43.359Z,101475.31
2023-05-01T21:51:10.503Z,101478.22
2023-05-01T21:53:41.373Z,101479.03
2023-05-01T21:56:11.015Z,101492.16
2023-05-01T21:58:38.957Z,101490.50
2023-05-01T22:01:06.522Z,101495.84
2023-05-01T22:03:34.352Z,101493.41
2023-05-01T22:06:02.216Z,101497.94
2023-05-01T22:08:29.146Z,101493.63
2023-05-01T22:10:56.077Z,101494.06
2023-05-01T22:13:24.280Z,101498.81
2023-05-01T22:15:51.163Z,101494.91
2023-05-01T22:18:19.465Z,101502.56
2023-05-01T22:20:46.470Z,101507.50
2023-05-01T22:23:14.230Z,101500.53
2023-05-01T22:25:41.247Z,101506.91
2023-05-01T22:28:08.729Z,101515.38
2023-05-01T22:30:37.370Z,101516.81
2023-05-01T22:33:04.543Z,101523.19
2023-05-01T22:35:31.572Z,101529.78
2023-05-01T22:37:58.507Z,101524.84
2023-05-01T22:40:25.452Z,101527.13
2023-05-01T22:42:52.314Z,101532.91
2023-05-01T22:45:19.246Z,101527.38
2023-05-01T22:47:47.478Z,101524.50
2023-05-01T22:50:14.425Z,101524.31
2023-05-01T22:52:41.332Z,101529.47
2023-05-01T22:55:08.708Z,101536.88
2023-05-01T22:57:35.692Z,101540.78
2023-05-01T23:00:02.769Z,101537.72
2023-05-01T23:02:30.363Z,101537.53
2023-05-01T23:04:58.670Z,101536.94
2023-05-01T23:07:25.556Z,101540.63
2023-05-01T23:09:53.002Z,101538.97
2023-05-01T23:12:25.518Z,101538.16
2023-05-01T23:14:52.969Z,101537.34
2023-05-01T23:17:19.928Z,101548.84
2023-05-01T23:19:47.087Z,101551.31
2023-05-01T23:22:15.396Z,101558.31
2023-05-01T23:24:44.633Z,101561.19
2023-05-01T23:27:14.424Z,101562.88
2023-05-01T23:29:42.014Z,101562.66
2023-05-01T23:32:17.896Z,101560.41
2023-05-01T23:34:45.448Z,101561.22
2023-05-01T23:37:12.352Z,101565.34
2023-05-01T23:39:40.552Z,101562.28
2023-05-01T23:42:07.535Z,101557.56
2023-05-01T23:44:34.478Z,101561.25
2023-05-01T23:47:01.508Z,101569.47
2023-05-01T23:49:28.565Z,101568.00
2023-05-01T23:51:55.738Z,101554.84
2023-05-01T23:54:22.772Z,101560.41
2023-05-01T23:56:51.047Z,101566.75
2023-05-01T23:59:18.938Z,101567.38
